North Wales, PA (19455)

9:41 PM EDT on May 28, 2015 (GMT -0400)
North Wales, Pa | | Change Station
CLOSE
Current Station
Personal Weather Station
Location: North Wales, PA
Elevation: 374 ft
Nearby Weather Stations

Elev 374 ft 40.22 °N, 75.28 °W | Updated 16 seconds ago

Partly Cloudy
Partly Cloudy
75.7 °F
Feels Like 78 °F
N
1.2
Wind Variable Wind from NW
Gusts 3.0 mph

Today
High -- | Low -- °F
--% Chance of Precip.
Yesterday
High -- | Low -- °F
Precip. -- in
5:35 AM 8:21 PM
Waxing Gibbous, 80% visible
Pressure 30.19 in
Visibility 10.0 miles
Clouds Clear
Heat Index 78 °F
Dew Point 55 °F
Humidity 49%
Rainfall 0.00 in
Snow Depth Not available.
UV 0 out of 12
Pollen 7.40 out of 12
Air Quality Not available.
Flu Activity Sporadic
METAR KLOM 290135Z AUTO 03003KT 10SM CLR 25/15 A3019 RMK AO1

More Conditions Fewer Conditions

Pressure 30.19 in
Visibility 10.0 miles
Clouds Clear
Heat Index 78 °F
Dew Point 55 °F
Humidity 49%
Rainfall 0.00 in
Snow Depth Not available.
UV 0 out of 12
Pollen 7.40 out of 12
Air Quality Not available.
Flu Activity Sporadic
METAR KLOM 290135Z AUTO 03003KT 10SM CLR 25/15 A3019 RMK AO1

More Conditions Fewer Conditions

10-Day Weather Forecast

Almanac

Astronomy

May. 28, 2015 Rise Set
Actual Time
Civil Twilight
Nautical Twilight
Astronomical Twilight
Moon
Length of Visible Light
Length of Day
Tomorrow will be .
, % of the Moon is Illuminated

Today's Extremes

State Highs State Lows

Community

WunderPhotos

Upload Photos

1,825,122 photos uploaded!

WunderBlogs® & News

Nearby

Air Quality

  Air Quality AQ Index Pollutant
Not available.

Snow Depth

Station Depth Elevation

Earthquake Activity

City Distance Mag. Time & Date
Minimum magnitude displayed is 2.5.

Coastal Water Temperatures

Place Temperature

Stations

Nearby Weather Stations

Station Location Temp. Windchill Dew Point Humidity Wind Precip. Elev Updated Type